Fort Chipewyan Airport
CYPY : now visible

Airfield :











YOU CAN JOIN US ON...

 
LOGIN :

Register | Disclaimer

   EN    FR    IT 

 









Legend :    VFR   Marginal VFR   IFR   Intensive IFR   Very Intensive IFR
Visi :
Ceiling :
>= 8 km
>= 3000ft
5 to 8 km
1000 to 3000 ft
1500m to 5 km
500 to 1000 ft
800 to 1500m
200 to 500 ft
< 800m
< 200 ft
Symbols :   Thunderstorms  Fog  Heavy snow  Heavy precipitations  Wind > 20 kt






- Airport Elevation : 761 ft
- IATA code : YPY


CYPY - Fort Chipewyan

CURRENT METAR :
  • 232300Z AUTO 12008KT 9SM OVC006 M04/M04 A2977 RMK SLP101

EXPIRED METARs :
  • 232239Z AUTO 12008KT 8SM OVC006 M04/M04 A2978 RMK SLP102
  • 232233Z AUTO 12008KT 100V160 6SM -SN OVC006 M04/M04 A2977 RMK SLP100
  • 232223Z AUTO 12006KT 5SM BR OVC006 M04/M04 A2978 RMK SLP102
  • 232200Z AUTO 13007KT 9SM OVC006 M03/M04 A2979 RMK SLP107
  • 232139Z AUTO 10007KT 9SM OVC006 M04/M05 A2979 RMK SLP107
  • 232100Z AUTO 10006KT 9SM OVC008 M05/M06 A2980 RMK SLP111
  • 232000Z AUTO 10005KT 9SM OVC010 M05/M06 A2981 RMK SLP115

TAF AMD TAF CYPY
Valid from the 23 at 22:00 until the 24 at 06:00 UTC


232214Z 2322/2406 13008KT 4SM -SN BR OVC006
TEMPO 2322/2401 P6SM NSW SCT006 BKN012
FM240100 10008KT P6SM SCT008 BKN012 OVC240
TEMPO 2401/2406 SCT012 OVC180 RMK FCST BASED ON AUTO OBS. NXT FCST BY 240000Z



MET'MAP, your aeronautical weather chart ! - Copyright ORBIFLY December 2007 - Disclaimer

ORBIFLY MET'MAP TEAM :

Programming & Development : Alexandra Zaïnal
Concept & original design : Baudouin d'Aumeries
Assistance for programming : Marc-Olivier Méhu
Technical & hardware support : Manuel Goepfert

Contact : metmap@orbifly.com




SOURCES & CREDITS :

   NOAA       Earth
Advisory